Aérodrome :
LOGIN :

S'inscrire | Disclaimer

   EN    FR    IT 

 










Légende :    VFR   VFR Marginal   IFR   IFR Intensif   IFR Très Intensif
Visi : 
Plafond : 
>= 8 km
>= 3000ft
5 à 8 km
1000 à 3000 ft
1500m à 5 km
500 à 1000 ft
800 à 1500m
200 à 500 ft
< 800m
< 200 ft
Symboles :   Orages  Brouillard  Fortes neiges  Fortes précipitations  Vent > 20 kt
SIGMETs :   Divers  Orages  Givrage  Turbulence  Onde Orograph.  Cendres Volcan.






- Altitude de l'aérodrome : 266 ft
- Code IATA : NCL


EGNT - Newcastle

DERNIER METAR :
  • 291220Z 25014KT 9999 FEW018 SCT028 06/03 Q1000

METARs EXPIRÉS :
  • 291150Z 26014KT 9999 SCT019 06/03 Q1000
  • 291120Z 26014KT 9999 SCT019 06/03 Q1001
  • 291050Z 27016KT 9999 FEW020 05/02 Q1001
  • 291020Z 26018KT 9999 FEW020 05/02 Q1000
  • 290950Z 26015KT 9999 FEW020 04/02 Q1000

TAF TAF EGNT
Valide du 29 à 12h jusqu'au 30 à 12h UTC


291057Z 2912/3012 26015KT 9999 FEW015 SCT025
BECMG 2912/2915 25020G33KT
TEMPO 2912/3002 8000 -RA BKN014
PROB30
TEMPO 2915/2918 RA
BECMG 3000/3003 23012KT
BECMG 3009/3012 23018G33KT
ATIS : +44 191 214 3400



MET'MAP, la Météo Aéronautique d'un coup d'oeil ! - Copyright ORBIFLY Décembre 2007 - Disclaimer

ORBIFLY MET'MAP TEAM :

Programmation & Développement : Alexandra Zaïnal
Sur une idée originale de : Baudouin d'Aumeries
Assistance à la programmation : Marc-Olivier Méhu
Soutien technique & logistique : Manuel Goepfert

Contact : metmap@orbifly.com




SOURCES & CREDITS :

   NOAA